createdAt,value
2023-01-25T00:02:22.243Z,15.97
2023-01-25T00:04:48.824Z,17.27
2023-01-25T00:07:17.853Z,17.00
2023-01-25T00:09:44.328Z,16.10
2023-01-25T00:12:10.740Z,17.60
2023-01-25T00:14:37.134Z,17.30
2023-01-25T00:17:03.688Z,15.70
2023-01-25T00:19:30.073Z,17.43
2023-01-25T00:21:56.508Z,17.73
2023-01-25T00:24:23.322Z,17.97
2023-01-25T00:26:49.920Z,18.43
2023-01-25T00:29:16.368Z,19.03
2023-01-25T00:32:01.607Z,19.00
2023-01-25T00:34:29.542Z,18.47
2023-01-25T00:37:02.461Z,18.30
2023-01-25T00:39:29.443Z,18.93
2023-01-25T00:41:55.805Z,18.50
2023-01-25T00:44:23.236Z,19.07
2023-01-25T00:46:49.841Z,18.77
2023-01-25T00:49:20.893Z,19.00
2023-01-25T00:51:47.302Z,18.40
2023-01-25T00:54:13.645Z,17.77
2023-01-25T00:56:39.984Z,17.50
2023-01-25T00:59:06.608Z,18.57
2023-01-25T01:01:34.254Z,17.27
2023-01-25T01:04:00.811Z,17.20
2023-01-25T01:06:27.197Z,18.17
2023-01-25T01:08:53.527Z,18.60
2023-01-25T01:11:19.965Z,17.60
2023-01-25T01:13:46.576Z,17.37
2023-01-25T01:16:13.391Z,17.57
2023-01-25T01:18:41.272Z,17.47
2023-01-25T01:21:08.298Z,18.30
2023-01-25T01:23:35.259Z,18.80
2023-01-25T01:26:02.596Z,17.33
2023-01-25T01:28:29.676Z,17.97
2023-01-25T01:31:02.271Z,16.70
2023-01-25T01:33:28.771Z,15.63
2023-01-25T01:35:55.165Z,15.70
2023-01-25T01:38:21.747Z,17.17
2023-01-25T01:40:49.058Z,15.43
2023-01-25T01:43:19.559Z,14.97
2023-01-25T01:45:49.244Z,14.53
2023-01-25T01:48:15.692Z,14.70
2023-01-25T01:50:45.858Z,15.00
2023-01-25T01:53:12.299Z,14.97
2023-01-25T01:55:39.403Z,15.10
2023-01-25T01:58:06.863Z,14.10
2023-01-25T02:00:35.282Z,13.37
2023-01-25T02:03:02.712Z,13.20
2023-01-25T02:05:32.502Z,13.43
2023-01-25T02:07:59.181Z,13.80
2023-01-25T02:10:26.764Z,14.67
2023-01-25T02:12:54.473Z,15.03
2023-01-25T02:15:20.947Z,14.70
2023-01-25T02:17:47.526Z,13.50
2023-01-25T02:20:36.583Z,12.57
2023-01-25T02:23:12.031Z,13.40
2023-01-25T02:25:38.544Z,13.33
2023-01-25T02:28:25.183Z,12.60
2023-01-25T02:30:51.661Z,12.90
2023-01-25T02:33:18.089Z,14.13
2023-01-25T02:35:46.204Z,13.87
2023-01-25T02:38:13.747Z,13.80
2023-01-25T02:40:46.429Z,13.67
2023-01-25T02:43:13.970Z,13.03
2023-01-25T02:45:40.372Z,12.60
2023-01-25T02:48:06.761Z,14.47
2023-01-25T02:50:33.187Z,14.47
2023-01-25T02:52:59.556Z,13.70
2023-01-25T02:55:26.004Z,12.67
2023-01-25T02:57:52.366Z,13.00
2023-01-25T03:00:18.836Z,12.10
2023-01-25T03:02:45.365Z,13.43
2023-01-25T03:05:11.797Z,13.27
2023-01-25T03:07:38.357Z,11.33
2023-01-25T03:10:05.040Z,13.10
2023-01-25T03:12:31.573Z,13.87
2023-01-25T03:14:58.012Z,12.17
2023-01-25T03:17:25.066Z,13.00
2023-01-25T03:19:51.451Z,13.00
2023-01-25T03:22:17.858Z,13.07
2023-01-25T03:24:44.244Z,14.63
2023-01-25T03:27:10.724Z,13.20
2023-01-25T03:29:37.536Z,13.97
2023-01-25T03:32:04.575Z,12.57
2023-01-25T03:34:31.060Z,12.40
2023-01-25T03:36:57.562Z,13.53
2023-01-25T03:39:24.103Z,12.37
2023-01-25T03:41:50.585Z,13.73
2023-01-25T03:44:17.000Z,12.60
2023-01-25T03:46:43.481Z,13.43
2023-01-25T03:49:09.953Z,13.37
2023-01-25T03:51:36.635Z,14.03
2023-01-25T03:54:03.348Z,12.87
2023-01-25T03:56:29.730Z,11.93
2023-01-25T03:58:56.062Z,12.90
2023-01-25T04:01:22.782Z,12.53
2023-01-25T04:03:49.223Z,12.33
2023-01-25T04:06:15.698Z,12.07
2023-01-25T04:08:42.233Z,13.60
2023-01-25T04:11:09.584Z,13.03
2023-01-25T04:13:36.742Z,13.23
2023-01-25T04:16:07.199Z,15.07
2023-01-25T04:18:33.647Z,14.27
2023-01-25T04:21:00.088Z,13.63
2023-01-25T04:23:26.861Z,13.87
2023-01-25T04:26:00.998Z,16.37
2023-01-25T04:28:28.212Z,13.77
2023-01-25T04:30:55.419Z,13.93
2023-01-25T04:33:21.980Z,14.40
2023-01-25T04:35:48.388Z,15.93
2023-01-25T04:38:14.868Z,15.50
2023-01-25T04:40:42.173Z,17.17
2023-01-25T04:43:08.657Z,15.50
2023-01-25T04:45:36.401Z,14.20
2023-01-25T04:48:03.897Z,15.17
2023-01-25T04:50:30.648Z,14.77
2023-01-25T04:52:57.074Z,15.73
2023-01-25T04:55:23.488Z,15.93
2023-01-25T04:57:50.917Z,18.77
2023-01-25T05:00:17.821Z,14.60
2023-01-25T05:02:44.557Z,14.27
2023-01-25T05:05:11.811Z,13.90
2023-01-25T05:07:38.754Z,14.37
2023-01-25T05:10:06.244Z,13.00
2023-01-25T05:12:32.663Z,13.77
2023-01-25T05:14:59.005Z,12.83
2023-01-25T05:17:25.693Z,12.07
2023-01-25T05:19:52.057Z,12.97
2023-01-25T05:22:20.813Z,12.23
2023-01-25T05:24:47.883Z,12.67
2023-01-25T05:27:18.614Z,11.13
2023-01-25T05:29:45.405Z,11.87
2023-01-25T05:32:12.911Z,11.03
2023-01-25T05:34:39.751Z,11.57
2023-01-25T05:37:06.993Z,11.57
2023-01-25T05:39:33.411Z,12.13
2023-01-25T05:41:59.955Z,12.43
2023-01-25T05:44:26.604Z,11.03
2023-01-25T05:46:53.028Z,11.10
2023-01-25T05:49:19.855Z,12.77
2023-01-25T05:51:46.649Z,13.03
2023-01-25T05:54:14.125Z,12.67
2023-01-25T05:56:40.743Z,13.73
2023-01-25T05:59:07.373Z,13.37
2023-01-25T06:01:33.831Z,12.30
2023-01-25T06:04:00.284Z,12.50
2023-01-25T06:06:26.632Z,13.10
2023-01-25T06:08:52.975Z,13.13
2023-01-25T06:11:21.020Z,13.20
2023-01-25T06:13:47.810Z,13.97
2023-01-25T06:16:14.504Z,13.67
2023-01-25T06:18:40.923Z,13.90
2023-01-25T06:21:07.315Z,12.77
2023-01-25T06:23:33.721Z,13.77
2023-01-25T06:26:01.033Z,13.87
2023-01-25T06:28:30.155Z,13.83
2023-01-25T06:30:56.589Z,14.30
2023-01-25T06:33:22.932Z,14.10
2023-01-25T06:35:49.283Z,14.10
2023-01-25T06:38:15.682Z,13.70
2023-01-25T06:40:42.238Z,13.23
2023-01-25T06:43:09.603Z,14.87
2023-01-25T06:45:36.193Z,13.87
2023-01-25T06:48:02.628Z,13.97
2023-01-25T06:50:29.069Z,13.87
2023-01-25T06:52:55.699Z,14.23
2023-01-25T06:55:22.404Z,14.70
2023-01-25T06:57:48.897Z,14.60
2023-01-25T07:00:16.280Z,14.70
2023-01-25T07:02:42.708Z,14.63
2023-01-25T07:05:09.565Z,15.00
2023-01-25T07:07:36.190Z,14.70
2023-01-25T07:10:02.685Z,13.63
2023-01-25T07:12:30.181Z,14.13
2023-01-25T07:14:56.725Z,13.17
2023-01-25T07:17:23.846Z,14.17
2023-01-25T07:19:50.329Z,13.37
2023-01-25T07:22:18.081Z,13.30
2023-01-25T07:24:50.081Z,13.77
2023-01-25T07:27:17.477Z,13.93
2023-01-25T07:29:43.921Z,14.07
2023-01-25T07:32:12.211Z,14.40
2023-01-25T07:34:38.913Z,13.83
2023-01-25T07:37:05.438Z,12.27
2023-01-25T07:39:31.906Z,14.13
2023-01-25T07:41:58.469Z,14.10
2023-01-25T07:44:24.850Z,13.33
2023-01-25T07:46:51.249Z,13.17
2023-01-25T07:49:17.635Z,13.83
2023-01-25T07:51:44.217Z,13.00
2023-01-25T07:54:12.164Z,13.33
2023-01-25T07:56:40.574Z,14.50
2023-01-25T07:59:09.916Z,13.33
2023-01-25T08:01:37.175Z,13.43
2023-01-25T08:04:04.769Z,14.03
2023-01-25T08:06:37.084Z,15.57
2023-01-25T08:09:04.519Z,14.20
2023-01-25T08:11:31.361Z,15.67
2023-01-25T08:13:58.053Z,14.67
2023-01-25T08:16:26.231Z,14.60
2023-01-25T08:18:53.972Z,14.63
2023-01-25T08:21:20.412Z,13.03
2023-01-25T08:23:47.076Z,14.20
2023-01-25T08:26:14.300Z,14.73
2023-01-25T08:28:40.691Z,14.20
2023-01-25T08:31:11.146Z,16.10
2023-01-25T08:33:38.062Z,15.23
2023-01-25T08:36:05.406Z,14.37
2023-01-25T08:38:32.970Z,15.13
2023-01-25T08:41:06.896Z,15.83
2023-01-25T08:43:33.826Z,15.07
2023-01-25T08:46:00.399Z,15.73
2023-01-25T08:48:26.805Z,16.77
2023-01-25T08:50:53.430Z,17.53
2023-01-25T08:53:19.894Z,16.40
2023-01-25T08:55:46.312Z,15.83
2023-01-25T08:58:13.797Z,18.20
2023-01-25T09:00:41.087Z,17.80
2023-01-25T09:03:08.295Z,14.17
2023-01-25T09:05:35.096Z,16.30
2023-01-25T09:08:06.974Z,17.27
2023-01-25T09:10:34.758Z,17.23
2023-01-25T09:13:01.201Z,17.33
2023-01-25T09:15:27.786Z,17.07
2023-01-25T09:17:54.838Z,17.67
2023-01-25T09:20:21.615Z,16.00
2023-01-25T09:22:48.186Z,18.10
2023-01-25T09:25:14.951Z,17.27
2023-01-25T09:27:41.698Z,15.73
2023-01-25T09:30:16.555Z,16.30
2023-01-25T09:32:44.812Z,17.27
2023-01-25T09:35:11.318Z,18.23
2023-01-25T09:37:37.770Z,17.90
2023-01-25T09:40:05.031Z,18.07
2023-01-25T09:42:51.595Z,18.17
2023-01-25T09:45:24.084Z,17.67
2023-01-25T09:48:04.070Z,17.10
2023-01-25T09:50:36.663Z,18.10
2023-01-25T09:53:21.926Z,18.97
2023-01-25T09:55:50.997Z,18.47
2023-01-25T09:58:19.845Z,19.50
2023-01-25T10:00:48.178Z,20.20
2023-01-25T10:03:17.611Z,20.17
2023-01-25T10:05:45.632Z,17.80
2023-01-25T10:08:30.194Z,19.47
2023-01-25T10:11:20.047Z,19.30
2023-01-25T10:13:46.481Z,19.27
2023-01-25T10:16:27.439Z,19.47
2023-01-25T10:19:00.074Z,19.03
2023-01-25T10:21:32.473Z,19.93
2023-01-25T10:24:17.592Z,19.83
2023-01-25T10:26:47.286Z,19.57
2023-01-25T10:29:20.842Z,19.87
2023-01-25T10:31:53.456Z,20.93
2023-01-25T10:34:21.337Z,21.07
2023-01-25T10:36:50.999Z,20.67
2023-01-25T10:39:18.196Z,21.03
2023-01-25T10:41:48.221Z,21.33
2023-01-25T10:44:27.951Z,22.83
2023-01-25T10:47:00.715Z,22.40
2023-01-25T10:49:36.271Z,22.30
2023-01-25T10:52:23.156Z,22.50
2023-01-25T10:55:05.234Z,23.00
2023-01-25T10:57:32.463Z,22.07
2023-01-25T11:00:00.664Z,23.70
2023-01-25T11:02:36.547Z,24.00
2023-01-25T11:05:21.634Z,22.83
2023-01-25T11:07:48.533Z,23.40
2023-01-25T11:10:29.676Z,22.93
2023-01-25T11:13:14.981Z,24.37
2023-01-25T11:15:45.783Z,22.73
2023-01-25T11:18:20.491Z,22.87
2023-01-25T11:20:47.180Z,22.87
2023-01-25T11:23:22.005Z,24.97
2023-01-25T11:25:48.965Z,24.23
2023-01-25T11:28:18.203Z,23.63
2023-01-25T11:30:45.435Z,24.80
2023-01-25T11:33:12.968Z,23.87
2023-01-25T11:36:03.742Z,23.20
2023-01-25T11:38:30.418Z,22.77
2023-01-25T11:41:15.507Z,21.00
2023-01-25T11:43:54.071Z,23.13
2023-01-25T11:46:22.912Z,21.00
2023-01-25T11:48:52.046Z,23.90
2023-01-25T11:51:23.227Z,22.10
2023-01-25T11:53:58.475Z,21.70
2023-01-25T11:56:29.991Z,22.77
2023-01-25T11:59:11.977Z,22.30
2023-01-25T12:01:46.294Z,23.03
2023-01-25T12:04:31.314Z,20.93
2023-01-25T12:07:05.522Z,20.70
2023-01-25T12:09:51.280Z,22.33
2023-01-25T12:12:29.902Z,19.47
2023-01-25T12:15:17.328Z,21.10
2023-01-25T12:17:55.881Z,19.73
2023-01-25T12:20:31.488Z,22.40
2023-01-25T12:23:16.679Z,21.23
2023-01-25T12:25:43.198Z,21.83
2023-01-25T12:28:12.980Z,18.60
2023-01-25T12:30:45.624Z,22.00
2023-01-25T12:33:14.594Z,26.67
2023-01-25T12:35:56.291Z,21.13
2023-01-25T12:38:26.180Z,20.77
2023-01-25T12:40:59.559Z,22.43
2023-01-25T12:43:32.610Z,19.93
2023-01-25T12:46:00.153Z,20.17
2023-01-25T12:48:35.376Z,21.80
2023-01-25T12:51:01.803Z,20.90
2023-01-25T12:53:39.420Z,19.53
2023-01-25T12:56:06.917Z,20.23
2023-01-25T12:58:44.760Z,19.77
2023-01-25T13:01:11.270Z,19.67
2023-01-25T13:03:43.805Z,18.23
2023-01-25T13:06:18.525Z,18.57
2023-01-25T13:08:48.988Z,18.57
2023-01-25T13:11:33.229Z,18.70
2023-01-25T13:14:17.813Z,19.50
2023-01-25T13:16:45.534Z,19.40
2023-01-25T13:19:19.079Z,17.97
2023-01-25T13:21:46.406Z,17.87
2023-01-25T13:24:15.215Z,18.47
2023-01-25T13:26:48.857Z,17.97
2023-01-25T13:29:34.935Z,17.27
2023-01-25T13:32:02.048Z,17.27
2023-01-25T13:34:42.347Z,17.07
2023-01-25T13:37:23.006Z,17.13
2023-01-25T13:39:49.357Z,16.60
2023-01-25T13:42:26.317Z,17.93
2023-01-25T13:44:57.045Z,17.90
2023-01-25T13:47:25.455Z,18.50
2023-01-25T13:50:02.534Z,19.07
2023-01-25T13:52:31.178Z,17.07
2023-01-25T13:54:58.554Z,19.03
2023-01-25T13:57:26.961Z,17.67
2023-01-25T14:00:10.678Z,19.33
2023-01-25T14:02:38.700Z,19.57
2023-01-25T14:05:08.130Z,19.23
2023-01-25T14:07:36.972Z,18.43
2023-01-25T14:10:08.707Z,19.47
2023-01-25T14:12:40.336Z,19.03
2023-01-25T14:15:23.883Z,20.47
2023-01-25T14:18:14.263Z,20.43
2023-01-25T14:20:41.542Z,20.90
2023-01-25T14:23:24.707Z,19.80
2023-01-25T14:25:51.477Z,21.10
2023-01-25T14:28:18.509Z,20.63
2023-01-25T14:30:50.179Z,21.00
2023-01-25T14:33:40.341Z,21.07
2023-01-25T14:36:16.352Z,20.47
2023-01-25T14:38:50.714Z,22.20
2023-01-25T14:41:24.210Z,20.93
2023-01-25T14:43:51.864Z,21.97
2023-01-25T14:46:22.767Z,22.80
2023-01-25T14:48:49.287Z,23.13
2023-01-25T14:51:18.567Z,21.97
2023-01-25T14:53:47.984Z,23.00
2023-01-25T14:56:22.062Z,22.63
2023-01-25T14:58:59.071Z,22.33
2023-01-25T15:01:29.588Z,22.53
2023-01-25T15:03:56.141Z,25.13
2023-01-25T15:06:22.561Z,24.20
2023-01-25T15:08:49.017Z,24.07
2023-01-25T15:11:38.330Z,22.93
2023-01-25T15:14:14.680Z,25.90
2023-01-25T15:16:42.826Z,23.00
2023-01-25T15:19:21.619Z,24.20
2023-01-25T15:21:48.384Z,23.70
2023-01-25T15:24:14.866Z,22.40
2023-01-25T15:26:41.281Z,25.67
2023-01-25T15:29:20.225Z,25.57
2023-01-25T15:31:46.785Z,25.73
2023-01-25T15:34:15.241Z,23.80
2023-01-25T15:36:41.635Z,24.77
2023-01-25T15:39:12.789Z,23.63
2023-01-25T15:41:39.254Z,21.40
2023-01-25T15:44:05.855Z,23.10
2023-01-25T15:46:33.548Z,23.27
2023-01-25T15:49:00.031Z,22.90
2023-01-25T15:51:26.790Z,23.03
2023-01-25T15:53:53.236Z,22.80
2023-01-25T15:56:21.096Z,22.90
2023-01-25T15:58:49.122Z,33.27
2023-01-25T16:01:15.777Z,22.50
2023-01-25T16:03:42.316Z,22.97
2023-01-25T16:06:20.695Z,23.80
2023-01-25T16:08:47.081Z,24.17
2023-01-25T16:11:13.567Z,21.57
2023-01-25T16:13:41.567Z,23.83
2023-01-25T16:16:21.998Z,21.07
2023-01-25T16:18:48.977Z,20.37
2023-01-25T16:21:15.712Z,22.70
2023-01-25T16:23:42.768Z,22.40
2023-01-25T16:26:25.904Z,23.13
2023-01-25T16:28:52.318Z,21.90
2023-01-25T16:31:31.184Z,22.97
2023-01-25T16:33:58.887Z,20.77
2023-01-25T16:36:25.358Z,22.10
2023-01-25T16:38:52.098Z,21.53
2023-01-25T16:41:18.852Z,24.53
2023-01-25T16:43:46.568Z,21.63
2023-01-25T16:46:23.517Z,22.13
2023-01-25T16:48:51.244Z,21.77
2023-01-25T16:51:21.875Z,20.63
2023-01-25T16:53:49.010Z,20.90
2023-01-25T16:56:25.766Z,19.90
2023-01-25T16:58:52.876Z,18.67
2023-01-25T17:01:20.470Z,20.17
2023-01-25T17:03:47.436Z,20.07
2023-01-25T17:06:15.549Z,20.20
2023-01-25T17:08:42.042Z,18.43
2023-01-25T17:11:08.674Z,18.63
2023-01-25T17:13:35.321Z,18.50
2023-01-25T17:16:02.417Z,20.17
2023-01-25T17:18:29.447Z,19.77
2023-01-25T17:21:00.363Z,18.27
2023-01-25T17:23:27.884Z,19.10
2023-01-25T17:25:55.511Z,20.70
2023-01-25T17:28:22.437Z,19.83
2023-01-25T17:30:53.459Z,19.17
2023-01-25T17:33:20.746Z,19.97
2023-01-25T17:35:47.293Z,18.03
2023-01-25T17:38:13.821Z,18.97
2023-01-25T17:40:40.749Z,18.90
2023-01-25T17:43:07.218Z,18.60
2023-01-25T17:45:38.538Z,15.10
2023-01-25T17:48:09.165Z,19.87
2023-01-25T17:50:36.581Z,18.90
2023-01-25T17:53:03.401Z,20.97
2023-01-25T17:55:30.138Z,20.73
2023-01-25T17:57:57.635Z,18.97
2023-01-25T18:00:24.415Z,17.90
2023-01-25T18:02:51.801Z,19.67
2023-01-25T18:05:18.426Z,21.50
2023-01-25T18:07:45.486Z,20.63
2023-01-25T18:10:12.406Z,19.57
2023-01-25T18:12:39.105Z,22.70
2023-01-25T18:15:05.799Z,22.27
2023-01-25T18:17:35.892Z,22.90
2023-01-25T18:20:05.440Z,23.47
2023-01-25T18:22:32.471Z,23.47
2023-01-25T18:24:59.030Z,24.00
2023-01-25T18:27:26.520Z,24.13
2023-01-25T18:29:53.019Z,24.13
2023-01-25T18:32:19.597Z,24.30
2023-01-25T18:34:48.211Z,22.87
2023-01-25T18:37:18.385Z,23.47
2023-01-25T18:39:45.919Z,23.10
2023-01-25T18:42:12.362Z,23.90
2023-01-25T18:44:38.962Z,26.90
2023-01-25T18:47:05.453Z,25.63
2023-01-25T18:49:31.884Z,27.23
2023-01-25T18:52:10.824Z,28.90
2023-01-25T18:54:37.996Z,28.10
2023-01-25T18:57:04.636Z,27.60
2023-01-25T18:59:31.519Z,29.17
2023-01-25T19:01:58.024Z,29.53
2023-01-25T19:04:24.430Z,30.10
2023-01-25T19:06:56.712Z,31.83
2023-01-25T19:09:24.809Z,29.53
2023-01-25T19:11:51.989Z,30.70
2023-01-25T19:14:18.393Z,29.30
2023-01-25T19:16:44.810Z,29.47
2023-01-25T19:19:11.389Z,31.13
2023-01-25T19:21:38.721Z,29.10
2023-01-25T19:24:09.274Z,31.97
2023-01-25T19:26:35.867Z,28.63
2023-01-25T19:29:02.352Z,28.60
2023-01-25T19:31:32.134Z,28.00
2023-01-25T19:34:02.619Z,25.43
2023-01-25T19:36:29.891Z,24.10
2023-01-25T19:38:59.650Z,24.27
2023-01-25T19:41:27.463Z,26.10
2023-01-25T19:43:55.054Z,25.37
2023-01-25T19:46:22.933Z,24.90
2023-01-25T19:48:50.306Z,26.20
2023-01-25T19:51:16.681Z,25.07
2023-01-25T19:53:47.542Z,28.53
2023-01-25T19:56:16.226Z,26.93
2023-01-25T19:58:43.556Z,25.57
2023-01-25T20:01:17.921Z,25.90
2023-01-25T20:03:44.687Z,26.30
2023-01-25T20:06:11.597Z,29.87
2023-01-25T20:08:39.271Z,28.80
2023-01-25T20:11:11.283Z,30.30
2023-01-25T20:13:38.046Z,30.20
2023-01-25T20:16:04.675Z,32.43
2023-01-25T20:18:31.792Z,31.23
2023-01-25T20:20:59.363Z,30.97
2023-01-25T20:23:26.087Z,31.33
2023-01-25T20:26:18.803Z,31.30
2023-01-25T20:28:46.435Z,28.60
2023-01-25T20:31:39.401Z,29.50
2023-01-25T20:34:07.462Z,28.67
2023-01-25T20:36:34.908Z,29.63
2023-01-25T20:39:01.635Z,27.67
2023-01-25T20:41:28.254Z,28.07
2023-01-25T20:44:00.814Z,28.20
2023-01-25T20:46:27.685Z,27.23
2023-01-25T20:48:54.488Z,28.97
2023-01-25T20:51:21.708Z,27.87
2023-01-25T20:53:49.398Z,28.93
2023-01-25T20:56:16.397Z,27.17
2023-01-25T20:58:45.463Z,27.30
2023-01-25T21:01:16.400Z,28.50
2023-01-25T21:03:42.868Z,27.77
2023-01-25T21:06:09.293Z,27.97
2023-01-25T21:08:35.667Z,31.33
2023-01-25T21:11:02.524Z,28.27
2023-01-25T21:13:29.462Z,28.70
2023-01-25T21:16:06.451Z,28.70
2023-01-25T21:18:40.402Z,30.83
2023-01-25T21:21:06.823Z,29.50
2023-01-25T21:23:34.283Z,29.10
2023-01-25T21:26:01.620Z,31.63
2023-01-25T21:28:28.199Z,30.87
2023-01-25T21:30:54.847Z,28.50
2023-01-25T21:33:21.385Z,31.73
2023-01-25T21:35:47.809Z,32.73
2023-01-25T21:38:14.219Z,32.17
2023-01-25T21:40:40.633Z,29.57
2023-01-25T21:43:07.054Z,32.17
2023-01-25T21:45:52.266Z,31.87
2023-01-25T21:48:38.634Z,31.07
2023-01-25T21:51:23.667Z,32.43
2023-01-25T21:53:50.149Z,31.17
2023-01-25T21:56:16.483Z,33.73
2023-01-25T21:58:42.956Z,32.40
2023-01-25T22:01:10.091Z,33.50
2023-01-25T22:03:36.827Z,32.37
2023-01-25T22:06:03.295Z,32.10
2023-01-25T22:08:29.685Z,31.93
2023-01-25T22:11:03.229Z,32.17
2023-01-25T22:13:31.043Z,31.53
2023-01-25T22:16:01.304Z,32.67
2023-01-25T22:18:31.213Z,31.67
2023-01-25T22:20:58.632Z,31.27
2023-01-25T22:23:25.366Z,32.47
2023-01-25T22:26:02.855Z,34.33
2023-01-25T22:28:32.080Z,32.07
2023-01-25T22:30:58.721Z,31.90
2023-01-25T22:33:25.163Z,33.13
2023-01-25T22:35:51.617Z,31.93
2023-01-25T22:38:17.991Z,32.63
2023-01-25T22:40:44.350Z,32.03
2023-01-25T22:43:10.734Z,32.10
2023-01-25T22:45:37.185Z,32.73
2023-01-25T22:48:03.618Z,31.53
2023-01-25T22:50:30.629Z,32.23
2023-01-25T22:52:56.979Z,34.60
2023-01-25T22:55:23.436Z,34.00
2023-01-25T22:57:49.837Z,32.53
2023-01-25T23:00:16.573Z,33.63
2023-01-25T23:02:43.100Z,34.33
2023-01-25T23:05:09.569Z,33.33
2023-01-25T23:07:35.961Z,34.23
2023-01-25T23:10:02.327Z,33.27
2023-01-25T23:12:28.700Z,34.97
2023-01-25T23:14:55.087Z,34.73
2023-01-25T23:17:41.278Z,35.53
2023-01-25T23:20:09.639Z,32.03
2023-01-25T23:22:36.448Z,34.40
2023-01-25T23:25:03.657Z,33.50
2023-01-25T23:27:30.234Z,33.53
2023-01-25T23:29:56.657Z,32.47
2023-01-25T23:32:23.173Z,31.40
2023-01-25T23:34:53.241Z,31.00
2023-01-25T23:37:21.069Z,33.17
2023-01-25T23:39:48.307Z,29.37
2023-01-25T23:42:14.740Z,30.73
2023-01-25T23:44:41.088Z,29.70
2023-01-25T23:47:07.432Z,32.67
2023-01-25T23:49:33.858Z,29.30
2023-01-25T23:52:00.390Z,30.30
2023-01-25T23:54:29.707Z,28.57
2023-01-25T23:56:56.131Z,29.17
2023-01-25T23:59:22.572Z,29.10
